createdAt,value
2017-03-28T00:01:10.639Z,1017.29
2017-03-28T00:02:10.569Z,1017.27
2017-03-28T00:03:10.505Z,1017.29
2017-03-28T00:04:10.445Z,1017.29
2017-03-28T00:05:10.380Z,1017.27
2017-03-28T00:06:10.320Z,1017.27
2017-03-28T00:07:10.257Z,1017.26
2017-03-28T00:08:10.193Z,1017.24
2017-03-28T00:09:10.133Z,1017.28
2017-03-28T00:10:10.070Z,1017.23
2017-03-28T00:11:10.008Z,1017.25
2017-03-28T00:12:09.948Z,1017.24
2017-03-28T00:13:09.885Z,1017.22
2017-03-28T00:14:09.823Z,1017.23
2017-03-28T00:15:09.759Z,1017.21
2017-03-28T00:16:09.697Z,1017.21
2017-03-28T00:17:09.635Z,1017.2
2017-03-28T00:18:09.574Z,1017.21
2017-03-28T00:19:09.510Z,1017.2
2017-03-28T00:20:09.449Z,1017.2
2017-03-28T00:21:09.387Z,1017.2
2017-03-28T00:22:09.324Z,1017.21
2017-03-28T00:23:09.262Z,1017.17
2017-03-28T00:24:09.208Z,1017.22
2017-03-28T00:25:09.140Z,1017.22
2017-03-28T00:26:09.076Z,1017.18
2017-03-28T00:27:09.014Z,1017.17
2017-03-28T00:28:08.952Z,1017.19
2017-03-28T00:29:08.889Z,1017.17
2017-03-28T00:30:08.828Z,1017.15
2017-03-28T00:31:08.765Z,1017.16
2017-03-28T00:32:08.703Z,1017.15
2017-03-28T00:33:08.641Z,1017.16
2017-03-28T00:34:08.580Z,1017.14
2017-03-28T00:35:08.516Z,1017.15
2017-03-28T00:36:08.459Z,1017.13
2017-03-28T00:37:08.393Z,1017.12
2017-03-28T00:38:08.329Z,1017.14
2017-03-28T00:39:08.270Z,1017.12
2017-03-28T00:40:08.205Z,1017.11
2017-03-28T00:41:08.144Z,1017.09
2017-03-28T00:42:08.082Z,1017.09
2017-03-28T00:43:08.019Z,1017.1
2017-03-28T00:44:07.956Z,1017.07
2017-03-28T00:45:07.894Z,1017.06
2017-03-28T00:46:07.833Z,1017.07
2017-03-28T00:47:07.771Z,1017.09
2017-03-28T00:48:07.713Z,1017.04
2017-03-28T00:49:07.646Z,1017.04
2017-03-28T00:50:07.584Z,1017.07
2017-03-28T00:51:07.524Z,1017.05
2017-03-28T00:52:07.461Z,1017.05
2017-03-28T00:53:07.399Z,1017.03
2017-03-28T00:54:07.337Z,1017.03
2017-03-28T00:55:07.275Z,1017.04
2017-03-28T00:56:07.213Z,1017.03
2017-03-28T00:57:07.151Z,1017.02
2017-03-28T00:58:07.089Z,1017.01
2017-03-28T00:59:07.026Z,1016.97
2017-03-28T01:00:06.965Z,1016.98
2017-03-28T01:01:06.899Z,1016.96
2017-03-28T01:02:06.838Z,1016.96
2017-03-28T01:03:06.775Z,1016.95
2017-03-28T01:04:06.714Z,1016.98
2017-03-28T01:05:06.651Z,1016.94
2017-03-28T01:06:06.594Z,1016.94
2017-03-28T01:07:06.526Z,1016.91
2017-03-28T01:08:06.468Z,1016.95
2017-03-28T01:09:06.403Z,1016.91
2017-03-28T01:10:06.343Z,1016.93
2017-03-28T01:11:06.280Z,1016.96
2017-03-28T01:12:06.217Z,1016.91
2017-03-28T01:13:06.156Z,1016.86
2017-03-28T01:14:06.090Z,1016.87
2017-03-28T01:15:06.028Z,1016.9
2017-03-28T01:16:05.969Z,1016.86
2017-03-28T01:17:05.906Z,1016.83
2017-03-28T01:18:05.843Z,1016.78
2017-03-28T01:19:05.781Z,1016.77
2017-03-28T01:20:05.720Z,1016.77
2017-03-28T01:21:05.656Z,1016.79
2017-03-28T01:22:05.594Z,1016.79
2017-03-28T01:23:05.532Z,1016.74
2017-03-28T01:24:05.470Z,1016.72
2017-03-28T01:25:05.407Z,1016.69
2017-03-28T01:26:05.347Z,1016.71
2017-03-28T01:27:05.283Z,1016.67
2017-03-28T01:28:05.220Z,1016.72
2017-03-28T01:29:05.158Z,1016.66
2017-03-28T01:30:05.098Z,1016.68
2017-03-28T01:31:05.035Z,1016.67
2017-03-28T01:32:04.972Z,1016.68
2017-03-28T01:33:04.912Z,1016.71
2017-03-28T01:34:04.848Z,1016.69
2017-03-28T01:35:04.785Z,1016.7
2017-03-28T01:36:04.726Z,1016.69
2017-03-28T01:37:04.662Z,1016.69
2017-03-28T01:38:04.599Z,1016.67
2017-03-28T01:39:04.536Z,1016.68
2017-03-28T01:40:04.477Z,1016.66
2017-03-28T01:41:04.413Z,1016.63
2017-03-28T01:42:04.352Z,1016.62
2017-03-28T01:43:04.301Z,1016.64
2017-03-28T01:44:04.226Z,1016.6
2017-03-28T01:45:04.166Z,1016.63
2017-03-28T01:46:04.102Z,1016.59
2017-03-28T01:47:04.040Z,1016.59
2017-03-28T01:48:03.977Z,1016.57
2017-03-28T01:49:03.916Z,1016.55
2017-03-28T01:50:03.853Z,1016.52
2017-03-28T01:51:03.791Z,1016.51
2017-03-28T01:52:03.730Z,1016.49
2017-03-28T01:53:03.669Z,1016.53
2017-03-28T01:54:03.606Z,1016.47
2017-03-28T01:55:03.541Z,1016.53
2017-03-28T01:56:03.480Z,1016.49
2017-03-28T01:57:03.417Z,1016.47
2017-03-28T01:58:03.357Z,1016.47
2017-03-28T01:59:03.294Z,1016.45
2017-03-28T02:00:03.232Z,1016.43
2017-03-28T02:01:03.169Z,1016.45
2017-03-28T02:02:03.131Z,1016.4
2017-03-28T02:03:03.046Z,1016.41
2017-03-28T02:04:02.983Z,1016.41
2017-03-28T02:05:02.920Z,1016.36
2017-03-28T02:06:02.863Z,1016.39
2017-03-28T02:07:02.797Z,1016.36
2017-03-28T02:08:02.734Z,1016.36
2017-03-28T02:09:02.673Z,1016.38
2017-03-28T02:10:02.609Z,1016.37
2017-03-28T02:11:02.548Z,1016.37
2017-03-28T02:12:02.493Z,1016.41
2017-03-28T02:13:02.423Z,1016.42
2017-03-28T02:14:02.362Z,1016.4
2017-03-28T02:15:02.300Z,1016.44
2017-03-28T02:16:02.236Z,1016.42
2017-03-28T02:17:02.176Z,1016.4
2017-03-28T02:18:02.112Z,1016.43
2017-03-28T02:19:02.050Z,1016.43
2017-03-28T02:20:01.988Z,1016.44
2017-03-28T02:21:01.926Z,1016.43
2017-03-28T02:22:01.865Z,1016.48
2017-03-28T02:23:01.802Z,1016.45
2017-03-28T02:24:01.749Z,1016.49
2017-03-28T02:25:01.676Z,1016.5
2017-03-28T02:26:01.615Z,1016.49
2017-03-28T02:27:01.552Z,1016.51
2017-03-28T02:28:01.492Z,1016.48
2017-03-28T02:29:01.429Z,1016.49
2017-03-28T02:30:01.365Z,1016.47
2017-03-28T02:31:01.303Z,1016.51
2017-03-28T02:32:01.251Z,1016.52
2017-03-28T02:33:01.179Z,1016.49
2017-03-28T02:34:01.118Z,1016.52
2017-03-28T02:35:01.054Z,1016.46
2017-03-28T02:36:00.993Z,1016.53
2017-03-28T02:37:00.931Z,1016.51
2017-03-28T02:38:00.868Z,1016.5
2017-03-28T02:39:00.807Z,1016.52
2017-03-28T02:40:00.749Z,1016.5
2017-03-28T02:41:00.682Z,1016.51
2017-03-28T02:42:00.619Z,1016.46
2017-03-28T02:43:00.556Z,1016.47
2017-03-28T02:44:00.496Z,1016.49
2017-03-28T02:45:00.432Z,1016.43
2017-03-28T02:46:00.371Z,1016.43
2017-03-28T02:47:00.309Z,1016.45
2017-03-28T02:48:00.246Z,1016.43
2017-03-28T02:49:00.183Z,1016.44
2017-03-28T02:50:00.121Z,1016.49
2017-03-28T02:51:00.060Z,1016.43
2017-03-28T02:51:59.996Z,1016.41
2017-03-28T02:52:59.935Z,1016.43
2017-03-28T02:53:59.874Z,1016.39
2017-03-28T02:54:59.812Z,1016.36
2017-03-28T02:55:59.748Z,1016.37
2017-03-28T02:56:59.685Z,1016.38
2017-03-28T02:57:59.625Z,1016.38
2017-03-28T02:58:59.563Z,1016.37
2017-03-28T02:59:59.500Z,1016.36
2017-03-28T03:00:59.437Z,1016.38
2017-03-28T03:01:59.375Z,1016.32
2017-03-28T03:02:59.312Z,1016.33
2017-03-28T03:03:59.250Z,1016.39
2017-03-28T03:04:59.189Z,1016.32
2017-03-28T03:05:59.127Z,1016.31
2017-03-28T03:06:59.067Z,1016.34
2017-03-28T03:07:59.002Z,1016.35
2017-03-28T03:08:58.949Z,1016.29
2017-03-28T03:09:58.877Z,1016.3
2017-03-28T03:10:58.815Z,1016.31
2017-03-28T03:11:58.753Z,1016.32
2017-03-28T03:12:58.693Z,1016.31
2017-03-28T03:13:58.628Z,1016.36
2017-03-28T03:14:58.571Z,1016.33
2017-03-28T03:15:58.504Z,1016.32
2017-03-28T03:16:58.442Z,1016.29
2017-03-28T03:17:58.381Z,1016.33
2017-03-28T03:18:58.319Z,1016.3
2017-03-28T03:19:58.258Z,1016.31
2017-03-28T03:20:58.193Z,1016.29
2017-03-28T03:21:58.130Z,1016.32
2017-03-28T03:22:58.068Z,1016.34
2017-03-28T03:23:58.007Z,1016.33
2017-03-28T03:24:57.945Z,1016.31
2017-03-28T03:25:57.880Z,1016.3
2017-03-28T03:26:57.819Z,1016.28
2017-03-28T03:27:57.759Z,1016.28
2017-03-28T03:28:57.696Z,1016.27
2017-03-28T03:29:57.633Z,1016.29
2017-03-28T03:30:57.572Z,1016.29
2017-03-28T03:31:57.529Z,1016.29
2017-03-28T03:32:57.445Z,1016.28
2017-03-28T03:33:57.384Z,1016.29
2017-03-28T03:34:57.323Z,1016.31
2017-03-28T03:35:57.258Z,1016.32
2017-03-28T03:36:57.200Z,1016.23
2017-03-28T03:37:57.139Z,1016.3
2017-03-28T03:38:57.074Z,1016.25
2017-03-28T03:39:57.011Z,1016.21
2017-03-28T03:40:56.948Z,1016.25
2017-03-28T03:41:56.886Z,1016.23
2017-03-28T03:42:56.823Z,1016.21
2017-03-28T03:43:56.762Z,1016.22
2017-03-28T03:44:56.699Z,1016.2
2017-03-28T03:45:56.648Z,1016.23
2017-03-28T03:46:56.574Z,1016.23
2017-03-28T03:47:56.514Z,1016.26
2017-03-28T03:48:56.449Z,1016.26
2017-03-28T03:49:56.388Z,1016.24
2017-03-28T03:50:56.324Z,1016.27
2017-03-28T03:51:56.264Z,1016.22
2017-03-28T03:52:56.206Z,1016.24
2017-03-28T03:53:56.137Z,1016.22
2017-03-28T03:54:56.077Z,1016.21
2017-03-28T03:55:56.013Z,1016.25
2017-03-28T03:56:55.951Z,1016.27
2017-03-28T03:57:55.890Z,1016.27
2017-03-28T03:58:55.827Z,1016.24
2017-03-28T03:59:55.766Z,1016.23
2017-03-28T04:00:55.703Z,1016.24
2017-03-28T04:01:55.639Z,1016.31
2017-03-28T04:02:55.578Z,1016.32
2017-03-28T04:03:55.520Z,1016.23
2017-03-28T04:04:55.452Z,1016.23
2017-03-28T04:05:55.390Z,1016.2
2017-03-28T04:06:55.328Z,1016.25
2017-03-28T04:07:55.267Z,1016.22
2017-03-28T04:08:55.203Z,1016.24
2017-03-28T04:09:55.142Z,1016.21
2017-03-28T04:10:55.081Z,1016.21
2017-03-28T04:11:55.017Z,1016.19
2017-03-28T04:12:54.955Z,1016.23
2017-03-28T04:13:54.893Z,1016.21
2017-03-28T04:14:54.831Z,1016.22
2017-03-28T04:15:54.768Z,1016.23
2017-03-28T04:16:54.706Z,1016.23
2017-03-28T04:17:54.644Z,1016.23
2017-03-28T04:18:54.581Z,1016.25
2017-03-28T04:19:54.518Z,1016.25
2017-03-28T04:20:54.463Z,1016.26
2017-03-28T04:21:54.394Z,1016.26
2017-03-28T04:22:54.331Z,1016.27
2017-03-28T04:23:54.276Z,1016.31
2017-03-28T04:24:54.207Z,1016.29
2017-03-28T04:25:54.145Z,1016.31
2017-03-28T04:26:54.083Z,1016.35
2017-03-28T04:27:54.020Z,1016.34
2017-03-28T04:28:53.959Z,1016.36
2017-03-28T04:29:53.897Z,1016.35
2017-03-28T04:30:53.837Z,1016.36
2017-03-28T04:31:53.771Z,1016.37
2017-03-28T04:32:53.711Z,1016.37
2017-03-28T04:33:53.646Z,1016.34
2017-03-28T04:34:53.583Z,1016.34
2017-03-28T04:35:53.523Z,1016.35
2017-03-28T04:36:53.459Z,1016.4
2017-03-28T04:37:53.396Z,1016.38
2017-03-28T04:38:53.334Z,1016.37
2017-03-28T04:39:53.273Z,1016.31
2017-03-28T04:40:53.211Z,1016.33
2017-03-28T04:41:53.148Z,1016.32
2017-03-28T04:42:53.085Z,1016.33
2017-03-28T04:43:53.024Z,1016.29
2017-03-28T04:44:52.965Z,1016.3
2017-03-28T04:45:52.898Z,1016.28
2017-03-28T04:46:52.836Z,1016.33
2017-03-28T04:47:52.775Z,1016.31
2017-03-28T04:48:52.726Z,1016.35
2017-03-28T04:49:52.664Z,1016.33
2017-03-28T04:50:52.624Z,1016.36
2017-03-28T04:51:52.551Z,1016.33
2017-03-28T04:52:52.466Z,1016.35
2017-03-28T04:53:52.400Z,1016.33
2017-03-28T04:54:52.338Z,1016.34
2017-03-28T04:55:52.276Z,1016.36
2017-03-28T04:56:52.225Z,1016.34
2017-03-28T04:57:52.152Z,1016.32
2017-03-28T04:58:52.090Z,1016.34
2017-03-28T04:59:52.027Z,1016.35
2017-03-28T05:00:51.963Z,1016.33
2017-03-28T05:01:51.902Z,1016.35
2017-03-28T05:02:51.839Z,1016.34
2017-03-28T05:03:51.776Z,1016.32
2017-03-28T05:04:51.714Z,1016.31
2017-03-28T05:05:51.651Z,1016.33
2017-03-28T05:06:51.588Z,1016.33
2017-03-28T05:07:51.527Z,1016.34
2017-03-28T05:08:51.464Z,1016.32
2017-03-28T05:09:51.403Z,1016.34
2017-03-28T05:10:51.339Z,1016.37
2017-03-28T05:11:51.276Z,1016.38
2017-03-28T05:12:51.214Z,1016.35
2017-03-28T05:13:51.153Z,1016.38
2017-03-28T05:14:51.089Z,1016.38
2017-03-28T05:15:51.029Z,1016.36
2017-03-28T05:16:50.973Z,1016.38
2017-03-28T05:17:50.903Z,1016.39
2017-03-28T05:18:50.840Z,1016.41
2017-03-28T05:19:50.778Z,1016.41
2017-03-28T05:20:50.715Z,1016.43
2017-03-28T05:21:50.653Z,1016.43
2017-03-28T05:22:50.590Z,1016.45
2017-03-28T05:23:50.528Z,1016.42
2017-03-28T05:24:50.466Z,1016.42
2017-03-28T05:25:50.404Z,1016.45
2017-03-28T05:26:50.341Z,1016.44
2017-03-28T05:27:50.299Z,1016.44
2017-03-28T05:28:50.216Z,1016.44
2017-03-28T05:29:50.153Z,1016.46
2017-03-28T05:30:50.091Z,1016.42
2017-03-28T05:31:50.029Z,1016.44
2017-03-28T05:32:49.968Z,1016.44
2017-03-28T05:33:49.905Z,1016.42
2017-03-28T05:34:49.842Z,1016.42
2017-03-28T05:35:49.779Z,1016.44
2017-03-28T05:36:49.718Z,1016.43
2017-03-28T05:37:49.656Z,1016.41
2017-03-28T05:38:49.593Z,1016.42
2017-03-28T05:39:49.529Z,1016.45
2017-03-28T05:40:49.468Z,1016.44
2017-03-28T05:41:49.406Z,1016.43
2017-03-28T05:42:49.343Z,1016.45
2017-03-28T05:43:49.279Z,1016.44
2017-03-28T05:44:49.218Z,1016.43
2017-03-28T05:45:49.156Z,1016.45
2017-03-28T05:46:49.093Z,1016.44
2017-03-28T05:47:49.030Z,1016.49
2017-03-28T05:48:48.968Z,1016.51
2017-03-28T05:49:48.914Z,1016.49
2017-03-28T05:50:48.842Z,1016.49
2017-03-28T05:51:48.780Z,1016.49
2017-03-28T05:52:48.718Z,1016.5
2017-03-28T05:53:48.656Z,1016.51
2017-03-28T05:54:48.593Z,1016.53
2017-03-28T05:55:48.530Z,1016.54
2017-03-28T05:56:48.468Z,1016.56
2017-03-28T05:57:48.406Z,1016.55
2017-03-28T05:58:48.342Z,1016.59
2017-03-28T05:59:48.280Z,1016.61
2017-03-28T06:00:48.219Z,1016.59
2017-03-28T06:01:48.154Z,1016.55
2017-03-28T06:02:48.104Z,1016.57
2017-03-28T06:03:48.032Z,1016.58
2017-03-28T06:04:47.968Z,1016.58
2017-03-28T06:05:47.906Z,1016.57
2017-03-28T06:06:47.844Z,1016.57
2017-03-28T06:07:47.781Z,1016.58
2017-03-28T06:08:47.719Z,1016.58
2017-03-28T06:09:47.655Z,1016.57
2017-03-28T06:10:47.596Z,1016.58
2017-03-28T06:11:47.530Z,1016.59
2017-03-28T06:12:47.468Z,1016.59
2017-03-28T06:13:47.406Z,1016.57
2017-03-28T06:14:47.344Z,1016.58
2017-03-28T06:15:47.283Z,1016.57
2017-03-28T06:16:47.219Z,1016.58
2017-03-28T06:17:47.164Z,1016.54
2017-03-28T06:18:47.095Z,1016.56
2017-03-28T06:19:47.031Z,1016.58
2017-03-28T06:20:46.969Z,1016.59
2017-03-28T06:21:46.908Z,1016.53
2017-03-28T06:22:46.846Z,1016.57
2017-03-28T06:23:46.794Z,1016.6
2017-03-28T06:24:46.721Z,1016.6
2017-03-28T06:25:46.657Z,1016.62
2017-03-28T06:26:46.596Z,1016.63
2017-03-28T06:27:46.531Z,1016.62
2017-03-28T06:28:46.471Z,1016.64
2017-03-28T06:29:46.407Z,1016.69
2017-03-28T06:30:46.345Z,1016.71
2017-03-28T06:31:46.284Z,1016.7
2017-03-28T06:32:46.221Z,1016.7
2017-03-28T06:33:46.158Z,1016.72
2017-03-28T06:34:46.094Z,1016.7
2017-03-28T06:35:46.032Z,1016.73
2017-03-28T06:36:45.971Z,1016.74
2017-03-28T06:37:45.909Z,1016.72
2017-03-28T06:38:45.846Z,1016.73
2017-03-28T06:39:45.783Z,1016.73
2017-03-28T06:40:45.720Z,1016.72
2017-03-28T06:41:45.670Z,1016.75
2017-03-28T06:42:45.598Z,1016.75
2017-03-28T06:43:45.533Z,1016.75
2017-03-28T06:44:45.471Z,1016.8
2017-03-28T06:45:45.409Z,1016.77
2017-03-28T06:46:45.346Z,1016.75
2017-03-28T06:47:45.283Z,1016.77
2017-03-28T06:48:45.222Z,1016.77
2017-03-28T06:49:45.158Z,1016.73
2017-03-28T06:50:45.097Z,1016.78
2017-03-28T06:51:45.035Z,1016.76
2017-03-28T06:52:44.970Z,1016.77
2017-03-28T06:53:44.910Z,1016.76
2017-03-28T06:54:44.847Z,1016.76
2017-03-28T06:55:44.784Z,1016.78
2017-03-28T06:56:44.721Z,1016.79
2017-03-28T06:57:44.660Z,1016.76
2017-03-28T06:58:44.596Z,1016.77
2017-03-28T06:59:44.534Z,1016.83
2017-03-28T07:00:44.821Z,1016.83
2017-03-28T07:01:44.408Z,1016.79
2017-03-28T07:02:44.346Z,1016.8
2017-03-28T07:03:44.306Z,1016.83
2017-03-28T07:04:44.220Z,1016.81
2017-03-28T07:05:44.159Z,1016.8
2017-03-28T07:06:44.102Z,1016.79
2017-03-28T07:07:44.032Z,1016.76
2017-03-28T07:08:43.975Z,1016.76
2017-03-28T07:09:43.929Z,1016.75
2017-03-28T07:10:43.869Z,1016.76
2017-03-28T07:11:43.784Z,1016.76
2017-03-28T07:12:43.720Z,1016.77
2017-03-28T07:13:43.659Z,1016.78
2017-03-28T07:14:43.599Z,1016.81
2017-03-28T07:15:43.532Z,1016.76
2017-03-28T07:16:43.471Z,1016.79
2017-03-28T07:17:43.408Z,1016.78
2017-03-28T07:18:43.346Z,1016.78
2017-03-28T07:19:43.282Z,1016.77
2017-03-28T07:20:43.221Z,1016.78
2017-03-28T07:21:43.161Z,1016.77
2017-03-28T07:22:43.101Z,1016.76
2017-03-28T07:23:43.038Z,1016.79
2017-03-28T07:24:42.971Z,1016.81
2017-03-28T07:25:43.016Z,1016.82
2017-03-28T07:26:42.845Z,1016.81
2017-03-28T07:27:42.786Z,1016.83
2017-03-28T07:28:42.721Z,1016.85
2017-03-28T07:29:42.658Z,1016.85
2017-03-28T07:30:42.845Z,1016.84
2017-03-28T07:31:42.535Z,1016.85
2017-03-28T07:32:42.472Z,1016.9
2017-03-28T07:33:42.408Z,1016.84
2017-03-28T07:34:42.346Z,1016.84
2017-03-28T07:35:42.285Z,1016.86
2017-03-28T07:36:42.222Z,1016.87
2017-03-28T07:37:42.163Z,1016.83
2017-03-28T07:38:42.097Z,1016.8
2017-03-28T07:39:42.035Z,1016.81
2017-03-28T07:40:41.995Z,1016.81
2017-03-28T07:41:41.920Z,1016.8
2017-03-28T07:42:41.849Z,1016.81
2017-03-28T07:43:41.788Z,1016.83
2017-03-28T07:44:41.722Z,1016.81
2017-03-28T07:45:41.661Z,1016.83
2017-03-28T07:46:41.600Z,1016.79
2017-03-28T07:47:41.536Z,1016.79
2017-03-28T07:48:41.475Z,1016.81
2017-03-28T07:49:41.413Z,1016.78
2017-03-28T07:50:41.351Z,1016.79
2017-03-28T07:51:41.288Z,1016.83
2017-03-28T07:52:41.229Z,1016.83
2017-03-28T07:53:41.163Z,1016.8
2017-03-28T07:54:41.103Z,1016.79
2017-03-28T07:55:41.041Z,1016.82
2017-03-28T07:56:40.977Z,1016.79
2017-03-28T07:57:40.917Z,1016.77
2017-03-28T07:58:40.852Z,1016.8
2017-03-28T07:59:40.793Z,1016.81
2017-03-28T08:00:40.753Z,1016.82
2017-03-28T08:01:40.690Z,1016.81
2017-03-28T08:02:40.607Z,1016.77
2017-03-28T08:03:40.563Z,1016.79
2017-03-28T08:04:40.482Z,1016.81
2017-03-28T08:05:40.419Z,1016.77
2017-03-28T08:06:40.357Z,1016.8
2017-03-28T08:07:40.293Z,1016.8
2017-03-28T08:08:40.232Z,1016.79
2017-03-28T08:09:40.170Z,1016.8
2017-03-28T08:10:40.107Z,1016.77
2017-03-28T08:11:40.044Z,1016.8
2017-03-28T08:12:39.983Z,1016.78
2017-03-28T08:13:39.920Z,1016.77
2017-03-28T08:14:39.859Z,1016.77
2017-03-28T08:15:39.795Z,1016.78
2017-03-28T08:16:39.733Z,1016.81
2017-03-28T08:17:39.674Z,1016.76
2017-03-28T08:18:39.607Z,1016.8
2017-03-28T08:19:39.549Z,1016.76
2017-03-28T08:20:39.482Z,1016.77
2017-03-28T08:21:39.419Z,1016.76
2017-03-28T08:22:39.357Z,1016.75
2017-03-28T08:23:39.297Z,1016.73
2017-03-28T08:24:39.231Z,1016.72
2017-03-28T08:25:39.169Z,1016.69
2017-03-28T08:26:39.107Z,1016.69
2017-03-28T08:27:39.044Z,1016.69
2017-03-28T08:28:38.981Z,1016.72
2017-03-28T08:29:38.932Z,1016.66
2017-03-28T08:30:38.857Z,1016.68
2017-03-28T08:31:38.793Z,1016.67
2017-03-28T08:32:38.731Z,1016.68
2017-03-28T08:33:38.670Z,1016.67
2017-03-28T08:34:38.605Z,1016.7
2017-03-28T08:35:38.802Z,1016.7
2017-03-28T08:36:38.481Z,1016.71
2017-03-28T08:37:38.419Z,1016.66
2017-03-28T08:38:38.354Z,1016.66
2017-03-28T08:39:38.292Z,1016.68
2017-03-28T08:40:38.230Z,1016.68
2017-03-28T08:41:38.167Z,1016.71
2017-03-28T08:42:38.104Z,1016.7
2017-03-28T08:43:38.042Z,1016.7
2017-03-28T08:44:37.979Z,1016.71
2017-03-28T08:45:37.918Z,1016.72
2017-03-28T08:46:37.854Z,1016.7
2017-03-28T08:47:37.855Z,1016.69
2017-03-28T08:48:37.728Z,1016.7
2017-03-28T08:49:37.665Z,1016.71
2017-03-28T08:50:37.611Z,1016.65
2017-03-28T08:51:37.540Z,1016.67
2017-03-28T08:52:37.478Z,1016.68
2017-03-28T08:53:37.415Z,1016.7
2017-03-28T08:54:37.351Z,1016.67
2017-03-28T08:55:37.288Z,1016.65
2017-03-28T08:56:37.227Z,1016.68
2017-03-28T08:57:37.163Z,1016.64
2017-03-28T08:58:37.100Z,1016.66
2017-03-28T08:59:37.038Z,1016.66
2017-03-28T09:00:36.974Z,1016.7
2017-03-28T09:01:36.914Z,1016.69
2017-03-28T09:02:36.849Z,1016.67
2017-03-28T09:03:36.788Z,1016.66
2017-03-28T09:04:36.724Z,1016.69
2017-03-28T09:05:36.660Z,1016.68
2017-03-28T09:06:36.598Z,1016.73
2017-03-28T09:07:36.536Z,1016.73
2017-03-28T09:08:36.472Z,1016.74
2017-03-28T09:09:36.409Z,1016.73
2017-03-28T09:10:36.348Z,1016.71
2017-03-28T09:11:36.285Z,1016.72
2017-03-28T09:12:36.220Z,1016.69
2017-03-28T09:13:36.158Z,1016.68
2017-03-28T09:14:36.095Z,1016.69
2017-03-28T09:15:36.033Z,1016.69
2017-03-28T09:16:35.974Z,1016.71
2017-03-28T09:17:35.908Z,1016.67
2017-03-28T09:18:35.843Z,1016.71
2017-03-28T09:19:35.782Z,1016.7
2017-03-28T09:20:35.719Z,1016.73
2017-03-28T09:21:35.656Z,1016.74
2017-03-28T09:22:35.592Z,1016.73
2017-03-28T09:23:35.530Z,1016.76
2017-03-28T09:24:35.468Z,1016.7
2017-03-28T09:25:35.406Z,1016.7
2017-03-28T09:26:35.340Z,1016.72
2017-03-28T09:27:35.278Z,1016.67
2017-03-28T09:28:35.215Z,1016.68
2017-03-28T09:29:35.158Z,1016.66
2017-03-28T09:30:35.090Z,1016.71
2017-03-28T09:31:35.028Z,1016.73
2017-03-28T09:32:34.969Z,1016.73
2017-03-28T09:33:34.902Z,1016.72
2017-03-28T09:34:34.838Z,1016.75
2017-03-28T09:35:34.775Z,1016.74
2017-03-28T09:36:35.063Z,1016.75
2017-03-28T09:37:34.650Z,1016.73
2017-03-28T09:38:34.587Z,1016.74
2017-03-28T09:39:34.525Z,1016.73
2017-03-28T09:40:34.467Z,1016.68
2017-03-28T09:41:34.399Z,1016.68
2017-03-28T09:42:34.336Z,1016.72
2017-03-28T09:43:34.273Z,1016.73
2017-03-28T09:44:34.211Z,1016.72
2017-03-28T09:45:34.149Z,1016.7
2017-03-28T09:46:34.085Z,1016.71
2017-03-28T09:47:34.023Z,1016.67
2017-03-28T09:48:33.960Z,1016.68
2017-03-28T09:49:33.896Z,1016.67
2017-03-28T09:50:33.834Z,1016.63
2017-03-28T09:51:33.769Z,1016.62
2017-03-28T09:52:33.708Z,1016.63
2017-03-28T09:53:33.647Z,1016.61
2017-03-28T09:54:33.585Z,1016.59
2017-03-28T09:55:33.521Z,1016.6
2017-03-28T09:56:33.456Z,1016.6
2017-03-28T09:57:33.395Z,1016.58
2017-03-28T09:58:33.332Z,1016.56
2017-03-28T09:59:33.269Z,1016.57
2017-03-28T10:00:33.205Z,1016.5
2017-03-28T10:01:33.145Z,1016.53
2017-03-28T10:02:33.080Z,1016.53
2017-03-28T10:03:33.021Z,1016.53
2017-03-28T10:04:32.955Z,1016.52
2017-03-28T10:05:32.892Z,1016.52
2017-03-28T10:06:32.828Z,1016.49
2017-03-28T10:07:32.771Z,1016.47
2017-03-28T10:08:32.703Z,1016.47
2017-03-28T10:09:32.642Z,1016.44
2017-03-28T10:10:32.577Z,1016.46
2017-03-28T10:11:32.516Z,1016.43
2017-03-28T10:12:32.452Z,1016.42
2017-03-28T10:13:32.388Z,1016.35
2017-03-28T10:14:32.326Z,1016.37
2017-03-28T10:15:32.263Z,1016.38
2017-03-28T10:16:32.201Z,1016.37
2017-03-28T10:17:32.139Z,1016.37
2017-03-28T10:18:32.078Z,1016.31
2017-03-28T10:19:32.013Z,1016.3
2017-03-28T10:20:31.950Z,1016.29
2017-03-28T10:21:31.888Z,1016.34
2017-03-28T10:22:31.825Z,1016.3
2017-03-28T10:23:31.763Z,1016.26
2017-03-28T10:24:31.700Z,1016.28
2017-03-28T10:25:31.640Z,1016.3
2017-03-28T10:26:31.574Z,1016.29
2017-03-28T10:27:31.512Z,1016.28
2017-03-28T10:28:31.449Z,1016.28
2017-03-28T10:29:31.388Z,1016.24
2017-03-28T10:30:31.325Z,1016.24
2017-03-28T10:31:31.263Z,1016.25
2017-03-28T10:32:31.199Z,1016.23
2017-03-28T10:33:31.136Z,1016.22
2017-03-28T10:34:31.073Z,1016.22
2017-03-28T10:35:31.010Z,1016.23
2017-03-28T10:36:30.949Z,1016.2
2017-03-28T10:37:30.885Z,1016.18
2017-03-28T10:38:30.824Z,1016.2
2017-03-28T10:40:30.699Z,1016.18
2017-03-28T10:41:30.637Z,1016.16
2017-03-28T10:42:30.574Z,1016.18
2017-03-28T10:43:30.511Z,1016.17
2017-03-28T10:44:30.648Z,1016.16
2017-03-28T10:45:30.840Z,1016.19
2017-03-28T10:46:30.323Z,1016.15
2017-03-28T10:47:30.260Z,1016.11
2017-03-28T10:48:30.197Z,1016.12
2017-03-28T10:49:30.136Z,1016.09
2017-03-28T10:50:30.074Z,1016.11
2017-03-28T10:51:30.011Z,1016.09
2017-03-28T10:52:29.949Z,1016.12
2017-03-28T10:53:29.887Z,1016.09
2017-03-28T10:54:29.822Z,1016.07
2017-03-28T10:55:29.761Z,1016.04
2017-03-28T10:56:29.700Z,1016.07
2017-03-28T10:57:29.634Z,1016.05
2017-03-28T10:58:29.572Z,1016.06
2017-03-28T10:59:29.510Z,1016.04
2017-03-28T11:00:29.447Z,1016.09
2017-03-28T11:01:29.384Z,1016.04
2017-03-28T11:02:29.321Z,1016.02
2017-03-28T11:03:29.259Z,1016.01
2017-03-28T11:04:29.212Z,1016.02
2017-03-28T11:05:29.138Z,1015.99
2017-03-28T11:06:29.072Z,1015.98
2017-03-28T11:07:29.010Z,1015.94
2017-03-28T11:08:28.947Z,1015.92
2017-03-28T11:09:28.884Z,1015.91
2017-03-28T11:10:28.822Z,1015.9
2017-03-28T11:11:28.760Z,1015.88
2017-03-28T11:12:28.696Z,1015.9
2017-03-28T11:13:28.636Z,1015.88
2017-03-28T11:14:28.573Z,1015.89
2017-03-28T11:15:28.509Z,1015.89
2017-03-28T11:16:28.452Z,1015.85
2017-03-28T11:17:28.385Z,1015.84
2017-03-28T11:18:28.324Z,1015.88
2017-03-28T11:19:28.261Z,1015.84
2017-03-28T11:20:28.198Z,1015.79
2017-03-28T11:21:28.134Z,1015.82
2017-03-28T11:22:28.084Z,1015.76
2017-03-28T11:23:28.009Z,1015.77
2017-03-28T11:24:27.968Z,1015.73
2017-03-28T11:25:27.884Z,1015.73
2017-03-28T11:26:27.822Z,1015.78
2017-03-28T11:27:27.761Z,1015.73
2017-03-28T11:28:27.708Z,1015.74
2017-03-28T11:29:27.643Z,1015.71
2017-03-28T11:30:27.571Z,1015.68
2017-03-28T11:31:27.509Z,1015.67
2017-03-28T11:32:27.446Z,1015.68
2017-03-28T11:33:27.386Z,1015.66
2017-03-28T11:34:27.323Z,1015.7
2017-03-28T11:35:27.259Z,1015.65
2017-03-28T11:36:27.198Z,1015.66
2017-03-28T11:37:27.135Z,1015.7
2017-03-28T11:38:27.072Z,1015.65
2017-03-28T11:39:27.011Z,1015.61
2017-03-28T11:40:26.949Z,1015.65
2017-03-28T11:41:26.885Z,1015.65
2017-03-28T11:42:26.824Z,1015.62
2017-03-28T11:43:26.761Z,1015.62
2017-03-28T11:44:26.698Z,1015.59
2017-03-28T11:45:26.635Z,1015.59
2017-03-28T11:46:26.574Z,1015.59
2017-03-28T11:47:26.511Z,1015.58
2017-03-28T11:48:26.449Z,1015.55
2017-03-28T11:49:26.388Z,1015.52
2017-03-28T11:50:26.424Z,1015.51
2017-03-28T11:51:26.262Z,1015.49
2017-03-28T11:52:26.198Z,1015.46
2017-03-28T11:53:26.137Z,1015.46
2017-03-28T11:54:26.081Z,1015.47
2017-03-28T11:55:26.012Z,1015.47
2017-03-28T11:56:25.952Z,1015.45
2017-03-28T11:57:25.891Z,1015.43
2017-03-28T11:58:25.825Z,1015.46
2017-03-28T11:59:25.763Z,1015.41
2017-03-28T12:00:25.701Z,1015.41
2017-03-28T12:01:25.663Z,1015.39
2017-03-28T12:02:25.577Z,1015.42
2017-03-28T12:03:25.515Z,1015.39
2017-03-28T12:04:25.452Z,1015.39
2017-03-28T12:05:25.390Z,1015.41
2017-03-28T12:06:25.327Z,1015.35
2017-03-28T12:07:25.264Z,1015.38
2017-03-28T12:08:25.201Z,1015.34